Time;durP1;ratioP1;P1;durP2;ratioP2;P2;SDS_P1;SDS_P2;PMS_P1;PMS_P2;Temp;Humidity;BMP_temperature;BMP_pressure;BME280_temperature;BME280_humidity;BME280_pressure;Samples;Min_cycle;Max_cycle;Signal;HPM_P1;HPM_P2
2024/04/19 00:03:32;;;;;;;4.53;2.80;;;;;8.00;101144.00;;;;10537054;27;20313;-83
2024/04/19 00:08:35;;;;;;;4.73;2.83;;;;;8.00;101135.00;;;;10486719;27;20293;-83
2024/04/19 00:13:37;;;;;;;5.17;2.87;;;;;8.10;101130.00;;;;10515835;27;20821;-84
2024/04/19 00:18:38;;;;;;;6.60;3.27;;;;;8.10;101110.00;;;;10545026;27;20307;-82
2024/04/19 00:23:41;;;;;;;6.87;3.17;;;;;8.10;101119.00;;;;10513949;27;20288;-79
2024/04/19 00:28:42;;;;;;;6.80;3.30;;;;;8.20;101121.00;;;;10501889;27;20258;-79
2024/04/19 00:33:44;;;;;;;8.87;3.10;;;;;8.20;101109.00;;;;10532426;27;20281;-80
2024/04/19 00:38:46;;;;;;;4.53;2.97;;;;;8.20;101106.00;;;;10521096;27;20587;-78
2024/04/19 00:43:47;;;;;;;8.20;3.63;;;;;8.10;101109.00;;;;10541629;27;20756;-80
2024/04/19 00:48:49;;;;;;;7.43;3.50;;;;;7.90;101105.00;;;;10522220;27;20273;-79
2024/04/19 00:53:51;;;;;;;7.83;4.37;;;;;7.70;101082.00;;;;10533788;27;21068;-80
2024/04/19 00:59:04;;;;;;;8.03;3.97;;;;;7.60;101077.00;;;;10501334;28;20299;-79
2024/04/19 01:04:07;;;;;;;7.87;3.83;;;;;7.50;101066.00;;;;10485318;27;20587;-83
2024/04/19 01:09:09;;;;;;;10.23;4.07;;;;;7.50;101049.00;;;;10530582;27;20348;-83
2024/04/19 01:14:11;;;;;;;6.27;3.53;;;;;7.50;101047.00;;;;10566866;27;20293;-84
2024/04/19 01:19:12;;;;;;;5.03;3.90;;;;;7.50;101015.00;;;;10491031;27;20287;-83
2024/04/19 01:24:29;;;;;;;12.53;4.07;;;;;7.40;101003.00;;;;10531063;27;20769;-83
2024/04/19 01:29:30;;;;;;;5.00;4.10;;;;;7.40;100994.00;;;;10536965;27;20260;-84
2024/04/19 01:34:32;;;;;;;8.00;4.27;;;;;7.40;100988.00;;;;10537145;27;20909;-84
2024/04/19 01:39:33;;;;;;;7.10;4.80;;;;;7.40;100985.00;;;;10514906;27;20664;-83
2024/04/19 01:44:35;;;;;;;11.07;4.20;;;;;7.30;100982.00;;;;10587049;27;20798;-83
2024/04/19 01:49:38;;;;;;;8.03;4.63;;;;;7.30;100973.00;;;;10544161;27;20357;-84
2024/04/19 01:54:40;;;;;;;8.37;4.30;;;;;7.20;100973.00;;;;10551816;27;20272;-83
2024/04/19 01:59:41;;;;;;;8.43;4.50;;;;;7.20;100960.00;;;;10535183;27;20317;-82
2024/04/19 02:04:46;;;;;;;7.67;5.13;;;;;7.20;100940.00;;;;10474934;27;20356;-83
2024/04/19 02:09:47;;;;;;;8.00;4.40;;;;;7.10;100925.00;;;;10515431;28;20265;-84
2024/04/19 02:14:50;;;;;;;7.07;4.90;;;;;7.10;100921.00;;;;10787180;22;20317;-92
2024/04/19 02:19:56;;;;;;;11.97;4.57;;;;;7.10;100906.00;;;;10415313;27;20304;-90
2024/04/19 02:25:20;;;;;;;7.33;3.90;;;;;7.10;100895.00;;;;10390637;27;20977;-90
2024/04/19 02:36:14;;;;;;;4.37;3.30;;;;;7.00;100884.00;;;;10056142;28;20283;-90
2024/04/19 02:41:30;;;;;;;9.07;4.63;;;;;7.00;100874.00;;;;10383583;27;20315;-89
2024/04/19 02:46:40;;;;;;;8.07;4.20;;;;;7.00;100865.00;;;;10395545;27;20309;-93
2024/04/19 02:52:05;;;;;;;5.77;3.30;;;;;7.00;100853.00;;;;10377580;28;20492;-91
2024/04/19 02:57:30;;;;;;;5.73;3.70;;;;;7.00;100846.00;;;;10390452;27;20295;-92
2024/04/19 03:02:32;;;;;;;9.67;3.60;;;;;7.00;100834.00;;;;10383717;27;20321;-92
2024/04/19 03:07:35;;;;;;;6.47;3.67;;;;;7.00;100834.00;;;;10438680;27;20356;-92
2024/04/19 03:12:40;;;;;;;6.90;3.97;;;;;7.00;100822.00;;;;10326537;28;20420;-92
2024/04/19 03:18:09;;;;;;;9.33;3.87;;;;;7.00;100815.00;;;;10411770;27;20262;-93
2024/04/19 03:23:11;;;;;;;6.17;3.97;;;;;7.00;100798.00;;;;10368584;22;20887;-85
2024/04/19 03:28:12;;;;;;;5.63;3.20;;;;;7.00;100775.00;;;;10608175;27;20323;-84
2024/04/19 03:33:14;;;;;;;8.40;4.67;;;;;7.00;100774.00;;;;10609161;27;21110;-86
2024/04/19 03:38:15;;;;;;;8.30;3.97;;;;;7.00;100758.00;;;;10550760;27;20272;-85
2024/04/19 03:43:17;;;;;;;5.93;3.40;;;;;7.00;100751.00;;;;10571279;27;20854;-84
2024/04/19 03:48:18;;;;;;;6.37;4.17;;;;;7.00;100741.00;;;;10615688;27;20383;-84
2024/04/19 03:53:20;;;;;;;7.10;3.90;;;;;7.00;100741.00;;;;10571033;27;20635;-84
2024/04/19 03:58:21;;;;;;;6.53;3.73;;;;;7.00;100729.00;;;;10568172;27;20264;-84
2024/04/19 04:03:23;;;;;;;8.10;4.47;;;;;7.00;100724.00;;;;10577939;27;20311;-84
2024/04/19 04:08:24;;;;;;;8.97;4.67;;;;;7.10;100714.00;;;;10550579;27;20265;-84
2024/04/19 04:13:29;;;;;;;8.40;3.60;;;;;7.10;100708.00;;;;10615830;27;20268;-83
2024/04/19 04:18:30;;;;;;;6.97;4.20;;;;;7.10;100702.00;;;;10551503;27;20259;-84
2024/04/19 04:23:33;;;;;;;5.07;4.30;;;;;7.20;100691.00;;;;10606886;27;20627;-85
2024/04/19 04:28:37;;;;;;;8.00;4.37;;;;;7.20;100681.00;;;;10560147;27;20286;-85
2024/04/19 04:33:38;;;;;;;4.97;4.07;;;;;7.20;100685.00;;;;10555696;27;21116;-79
2024/04/19 04:38:40;;;;;;;7.70;4.43;;;;;7.20;100672.00;;;;10618052;27;20265;-79
2024/04/19 04:43:41;;;;;;;6.37;3.63;;;;;7.30;100673.00;;;;10575335;27;20359;-78
2024/04/19 04:48:42;;;;;;;5.53;3.70;;;;;7.30;100666.00;;;;10550008;27;20378;-78
2024/04/19 04:53:44;;;;;;;6.00;4.03;;;;;7.40;100677.00;;;;10610658;27;20264;-79
2024/04/19 04:58:45;;;;;;;6.80;3.93;;;;;7.40;100673.00;;;;10619689;27;20866;-80
2024/04/19 05:03:47;;;;;;;4.80;3.50;;;;;7.40;100674.00;;;;10584509;27;20268;-79
2024/04/19 05:08:49;;;;;;;5.80;3.20;;;;;7.40;100657.00;;;;10577590;27;20592;-80
2024/04/19 05:13:51;;;;;;;7.97;3.07;;;;;7.50;100665.00;;;;10605335;27;20267;-79
2024/04/19 05:18:52;;;;;;;4.87;3.53;;;;;7.50;100656.00;;;;10579666;27;20394;-78
2024/04/19 05:23:53;;;;;;;5.63;3.30;;;;;7.50;100662.00;;;;10588382;27;20295;-78
2024/04/19 05:28:55;;;;;;;5.13;3.37;;;;;7.60;100664.00;;;;10583050;27;20319;-81
2024/04/19 05:33:56;;;;;;;6.07;3.90;;;;;7.60;100655.00;;;;10567754;27;20457;-79
2024/04/19 05:38:58;;;;;;;4.63;3.70;;;;;7.70;100647.00;;;;10599968;27;20264;-78
2024/04/19 05:43:59;;;;;;;4.73;3.87;;;;;7.70;100649.00;;;;10612824;27;20393;-84
2024/04/19 05:49:01;;;;;;;5.37;4.47;;;;;7.80;100652.00;;;;10590442;27;20303;-83
2024/04/19 05:54:03;;;;;;;8.20;5.57;;;;;7.90;100640.00;;;;10532297;27;20269;-85
2024/04/19 05:59:04;;;;;;;7.90;5.80;;;;;7.90;100642.00;;;;10547763;27;20344;-85
2024/04/19 06:04:07;;;;;;;7.67;5.80;;;;;8.00;100640.00;;;;10571485;27;20257;-85
2024/04/19 06:09:09;;;;;;;8.17;6.37;;;;;8.00;100645.00;;;;10556597;27;20796;-84
2024/04/19 06:14:10;;;;;;;6.53;5.70;;;;;8.00;100649.00;;;;10609455;27;20991;-84
2024/04/19 06:19:12;;;;;;;9.27;7.63;;;;;8.10;100650.00;;;;10604829;27;20291;-86
2024/04/19 06:24:13;;;;;;;11.93;8.27;;;;;8.10;100640.00;;;;10611719;27;20268;-85
2024/04/19 06:29:14;;;;;;;11.20;8.70;;;;;8.20;100641.00;;;;10580821;27;20374;-86
2024/04/19 06:34:16;;;;;;;10.33;8.73;;;;;8.40;100643.00;;;;10583796;27;20275;-86
2024/04/19 06:39:23;;;;;;;11.03;8.53;;;;;8.40;100640.00;;;;10610684;27;20314;-86
2024/04/19 06:44:25;;;;;;;12.03;9.73;;;;;8.50;100643.00;;;;10570767;27;20338;-86
2024/04/19 06:49:26;;;;;;;14.07;10.43;;;;;8.60;100635.00;;;;10591129;27;20931;-86
2024/04/19 06:54:28;;;;;;;13.93;10.90;;;;;8.70;100636.00;;;;10599444;27;20939;-82
2024/04/19 06:59:29;;;;;;;16.23;11.00;;;;;8.80;100623.00;;;;10578962;27;20291;-80
2024/04/19 07:04:31;;;;;;;16.07;11.20;;;;;8.90;100620.00;;;;10607724;27;20369;-79
2024/04/19 07:09:33;;;;;;;23.93;12.50;;;;;9.00;100618.00;;;;10598564;27;20272;-80
2024/04/19 07:14:34;;;;;;;17.37;11.43;;;;;9.10;100618.00;;;;10632147;27;20256;-79
2024/04/19 07:19:36;;;;;;;13.97;10.93;;;;;9.10;100617.00;;;;10568903;27;20959;-81
2024/04/19 07:24:37;;;;;;;20.23;10.33;;;;;9.10;100611.00;;;;10618172;27;20301;-80
2024/04/19 07:29:39;;;;;;;15.23;11.03;;;;;9.30;100610.00;;;;10558506;27;20256;-82
2024/04/19 07:34:41;;;;;;;20.20;10.80;;;;;9.60;100607.00;;;;10575385;27;20280;-83
2024/04/19 07:39:42;;;;;;;19.10;10.80;;;;;10.00;100607.00;;;;10575385;27;20376;-82
2024/04/19 07:44:44;;;;;;;18.83;9.83;;;;;10.20;100592.00;;;;10553126;27;20275;-84
2024/04/19 07:49:45;;;;;;;17.63;10.40;;;;;10.20;100592.00;;;;10594022;27;20276;-85
2024/04/19 07:54:47;;;;;;;16.30;10.37;;;;;10.30;100581.00;;;;10587859;27;20280;-84
2024/04/19 07:59:48;;;;;;;19.63;10.27;;;;;10.10;100580.00;;;;10561425;27;20269;-84
2024/04/19 08:04:50;;;;;;;13.27;8.97;;;;;10.00;100575.00;;;;10609180;27;20841;-84
2024/04/19 08:09:53;;;;;;;18.13;9.33;;;;;9.90;100570.00;;;;10613867;27;21080;-84
2024/04/19 08:14:54;;;;;;;12.90;8.53;;;;;10.00;100561.00;;;;10593107;27;20268;-84
2024/04/19 08:19:56;;;;;;;15.63;9.23;;;;;10.30;100557.00;;;;10569818;27;20264;-83
2024/04/19 08:24:57;;;;;;;17.10;8.03;;;;;10.10;100568.00;;;;10588972;27;20294;-82
2024/04/19 08:29:59;;;;;;;12.80;7.87;;;;;10.00;100560.00;;;;10563028;27;20272;-84
2024/04/19 08:35:03;;;;;;;17.43;7.80;;;;;10.20;100550.00;;;;10572714;27;20298;-83
2024/04/19 08:40:05;;;;;;;14.70;8.43;;;;;10.70;100549.00;;;;10577255;27;20268;-83
2024/04/19 08:45:08;;;;;;;10.40;7.93;;;;;10.80;100541.00;;;;10589563;27;20743;-83
2024/04/19 08:50:10;;;;;;;13.33;7.73;;;;;10.80;100539.00;;;;10568385;27;20295;-82
2024/04/19 08:55:12;;;;;;;13.83;6.80;;;;;10.80;100540.00;;;;10559857;27;20261;-84
2024/04/19 09:00:14;;;;;;;11.77;7.07;;;;;11.00;100537.00;;;;10593019;27;20291;-82
2024/04/19 09:05:18;;;;;;;10.00;6.67;;;;;10.90;100528.00;;;;10611750;27;20294;-83
2024/04/19 09:10:20;;;;;;;9.27;5.00;;;;;10.60;100524.00;;;;10537035;27;20257;-84
2024/04/19 09:15:21;;;;;;;8.40;5.13;;;;;10.40;100530.00;;;;10586667;27;20268;-78
2024/04/19 09:20:23;;;;;;;13.10;5.53;;;;;10.60;100523.00;;;;10589236;27;20311;-78
2024/04/19 09:25:24;;;;;;;7.00;4.27;;;;;10.40;100515.00;;;;10572129;27;20267;-78
2024/04/19 09:30:26;;;;;;;8.87;4.23;;;;;10.60;100511.00;;;;10620311;27;20265;-79
2024/04/19 09:35:27;;;;;;;6.83;4.20;;;;;10.80;100523.00;;;;10560538;27;20946;-80
2024/04/19 09:40:33;;;;;;;15.63;4.17;;;;;11.20;100512.00;;;;10621268;27;21069;-79
2024/04/19 09:45:43;;;;;;;11.70;3.77;;;;;11.20;100496.00;;;;10583021;27;20827;-78
2024/04/19 09:50:49;;;;;;;9.37;4.00;;;;;10.90;100519.00;;;;10605591;27;20711;-80
2024/04/19 09:56:38;;;;;;;9.93;4.27;;;;;11.00;100522.00;;;;10551630;27;20273;-79
2024/04/19 10:01:40;;;;;;;5.67;3.20;;;;;10.90;100522.00;;;;10583368;27;20264;-79
2024/04/19 10:06:41;;;;;;;13.77;4.83;;;;;10.60;100520.00;;;;10607614;27;20309;-79
2024/04/19 10:11:48;;;;;;;8.30;3.43;;;;;10.40;100527.00;;;;10607815;27;20298;-79
2024/04/19 10:16:49;;;;;;;11.17;4.43;;;;;10.70;100523.00;;;;10618796;27;21048;-79
2024/04/19 10:21:53;;;;;;;10.90;5.03;;;;;11.20;100540.00;;;;10618143;27;20319;-79
2024/04/19 10:26:55;;;;;;;6.93;3.57;;;;;11.30;100532.00;;;;10547809;27;20264;-79
2024/04/19 10:31:57;;;;;;;6.17;2.23;;;;;11.30;100532.00;;;;10561813;27;20275;-80
2024/04/19 10:36:58;;;;;;;5.63;2.87;;;;;11.10;100534.00;;;;10558417;27;20264;-79
2024/04/19 10:42:00;;;;;;;4.83;2.57;;;;;11.30;100521.00;;;;10615214;27;20308;-79
2024/04/19 10:47:02;;;;;;;11.23;2.67;;;;;11.90;100520.00;;;;10612152;27;20380;-78
2024/04/19 10:52:05;;;;;;;6.40;2.60;;;;;11.80;100529.00;;;;10573806;27;20265;-79
2024/04/19 10:57:06;;;;;;;10.17;2.40;;;;;11.80;100531.00;;;;10590442;27;22171;-77
2024/04/19 11:02:09;;;;;;;9.07;2.57;;;;;12.20;100522.00;;;;10587742;27;20588;-78
2024/04/19 11:07:11;;;;;;;8.17;2.73;;;;;11.40;100535.00;;;;10579156;27;20815;-78
2024/04/19 11:12:12;;;;;;;8.40;2.00;;;;;10.60;100553.00;;;;10574592;27;20327;-78
2024/04/19 11:17:15;;;;;;;3.37;1.30;;;;;10.40;100527.00;;;;10563405;27;20264;-77
2024/04/19 11:22:16;;;;;;;6.53;1.83;;;;;10.40;100555.00;;;;10532429;27;20698;-77
2024/04/19 11:27:18;;;;;;;2.93;1.30;;;;;11.50;100564.00;;;;10588569;27;20265;-78
2024/04/19 11:32:23;;;;;;;5.20;1.40;;;;;12.30;100555.00;;;;10544305;27;20273;-78
2024/04/19 11:37:26;;;;;;;9.57;1.73;;;;;13.30;100555.00;;;;10587636;27;21078;-78
2024/04/19 11:42:28;;;;;;;6.70;1.67;;;;;12.80;100554.00;;;;10550857;27;20261;-78
2024/04/19 11:47:29;;;;;;;10.30;2.37;;;;;12.10;100573.00;;;;10544881;27;20281;-78
2024/04/19 11:52:31;;;;;;;5.07;1.97;;;;;12.00;100548.00;;;;10574921;27;20284;-78
2024/04/19 11:57:32;;;;;;;12.73;3.07;;;;;13.10;100564.00;;;;10578701;27;20256;-78
2024/04/19 12:02:34;;;;;;;6.97;2.40;;;;;13.90;100559.00;;;;10589851;27;20721;-78
2024/04/19 12:07:37;;;;;;;8.63;2.47;;;;;14.40;100567.00;;;;10567855;27;20299;-77
2024/04/19 12:12:39;;;;;;;10.73;1.75;;;;;14.10;100570.00;;;;10588513;27;20276;-78
2024/04/19 12:18:02;;;;;;;5.53;1.63;;;;;13.60;100559.00;;;;10581146;27;20383;-78
2024/04/19 12:23:04;;;;;;;6.57;1.43;;;;;13.00;100562.00;;;;10583316;27;20268;-77
2024/04/19 12:28:09;;;;;;;10.67;2.23;;;;;12.20;100580.00;;;;10548655;27;20260;-79
2024/04/19 12:33:10;;;;;;;11.90;2.17;;;;;11.90;100559.00;;;;10571847;27;20263;-79
2024/04/19 12:38:12;;;;;;;12.97;2.20;;;;;12.50;100579.00;;;;10611010;27;20367;-79
2024/04/19 12:43:14;;;;;;;5.83;1.80;;;;;13.20;100587.00;;;;10567955;27;20264;-78
2024/04/19 12:48:16;;;;;;;7.93;1.93;;;;;12.20;100570.00;;;;10580475;27;20376;-80
2024/04/19 12:53:17;;;;;;;6.67;1.90;;;;;13.00;100577.00;;;;10548002;27;20307;-79
2024/04/19 12:58:19;;;;;;;6.07;1.33;;;;;13.20;100591.00;;;;10560005;27;20377;-80
2024/04/19 13:03:23;;;;;;;4.37;1.13;;;;;14.50;100575.00;;;;10577430;27;20284;-77
2024/04/19 13:08:24;;;;;;;6.57;1.13;;;;;14.00;100559.00;;;;10582365;27;20389;-79
2024/04/19 13:13:26;;;;;;;5.28;1.92;;;;;14.30;100605.00;;;;10570617;27;20373;-78
2024/04/19 13:18:27;;;;;;;6.60;1.77;;;;;14.20;100566.00;;;;10567982;27;20261;-81
2024/04/19 13:23:29;;;;;;;6.97;1.70;;;;;13.50;100609.00;;;;10565296;27;20291;-79
2024/04/19 13:28:30;;;;;;;3.93;1.50;;;;;12.90;100613.00;;;;10579802;27;20320;-78
2024/04/19 13:33:32;;;;;;;7.10;1.63;;;;;14.00;100608.00;;;;10590976;27;20275;-78
2024/04/19 13:38:34;;;;;;;9.13;1.95;;;;;14.60;100610.00;;;;10586544;27;20261;-78
2024/04/19 13:43:36;;;;;;;7.57;1.60;;;;;13.10;100631.00;;;;10610939;27;20278;-77
2024/04/19 13:48:37;;;;;;;6.07;1.70;;;;;12.20;100643.00;;;;10580385;27;20307;-77
2024/04/19 13:53:43;;;;;;;5.43;1.50;;;;;12.60;100637.00;;;;10538472;27;20290;-80
2024/04/19 13:58:44;;;;;;;6.47;1.20;;;;;12.80;100642.00;;;;10575075;27;20300;-78
2024/04/19 14:03:46;;;;;;;4.53;1.10;;;;;13.30;100643.00;;;;10592682;27;20295;-81
2024/04/19 14:08:51;;;;;;;6.37;1.10;;;;;12.90;100635.00;;;;10544447;27;20401;-81
2024/04/19 14:13:53;;;;;;;4.97;1.13;;;;;13.30;100654.00;;;;10532028;27;20260;-81
2024/04/19 14:18:54;;;;;;;8.30;1.67;;;;;13.60;100655.00;;;;10548455;27;20323;-82
2024/04/19 14:23:56;;;;;;;5.30;1.20;;;;;13.40;100665.00;;;;10584143;27;20302;-82
2024/04/19 14:28:58;;;;;;;5.40;1.10;;;;;13.40;100671.00;;;;10578657;27;20313;-83
2024/04/19 14:33:59;;;;;;;7.13;1.60;;;;;14.40;100668.00;;;;10581802;27;20339;-82
2024/04/19 14:39:01;;;;;;;7.65;1.45;;;;;14.90;100680.00;;;;10544510;27;20937;-81
2024/04/19 14:44:03;;;;;;;7.38;1.85;;;;;14.90;100679.00;;;;10580105;27;21023;-82
2024/04/19 14:49:05;;;;;;;8.13;1.60;;;;;14.20;100680.00;;;;10595776;27;20274;-81
2024/04/19 14:54:06;;;;;;;5.95;1.55;;;;;12.30;100666.00;;;;10561895;27;20257;-81
2024/04/19 14:59:08;;;;;;;9.40;2.17;;;;;12.00;100701.00;;;;10579895;27;20378;-82
2024/04/19 15:04:14;;;;;;;11.80;2.50;;;;;11.80;100719.00;;;;10577011;27;20265;-82
2024/04/19 15:09:16;;;;;;;11.67;2.70;;;;;12.20;100715.00;;;;10614325;27;20359;-80
2024/04/19 15:14:17;;;;;;;13.70;3.07;;;;;11.90;100721.00;;;;10585485;27;20301;-82
2024/04/19 15:19:19;;;;;;;8.20;1.53;;;;;12.00;100737.00;;;;10555800;27;20327;-80
2024/04/19 15:24:20;;;;;;;10.80;2.83;;;;;11.60;100708.00;;;;10549433;27;20385;-82
2024/04/19 15:29:22;;;;;;;6.43;1.90;;;;;12.20;100738.00;;;;10604335;27;20590;-82
2024/04/19 15:34:23;;;;;;;6.03;1.90;;;;;12.20;100745.00;;;;10604927;27;21690;-79
2024/04/19 15:39:49;;;;;;;14.17;2.90;;;;;12.40;100737.00;;;;10537294;27;20268;-82
2024/04/19 15:44:50;;;;;;;11.50;2.93;;;;;11.70;100694.00;;;;10614061;27;20291;-80
2024/04/19 15:49:58;;;;;;;14.43;2.93;;;;;10.90;100757.00;;;;10548485;27;20275;-81
2024/04/19 15:54:59;;;;;;;12.17;3.87;;;;;10.70;100781.00;;;;10611514;27;21231;-82
2024/04/19 16:00:01;;;;;;;23.90;3.77;;;;;10.30;100778.00;;;;10550524;27;20311;-81
2024/04/19 16:05:05;;;;;;;9.83;3.00;;;;;10.20;100794.00;;;;10591099;27;20287;-81
2024/04/19 16:10:07;;;;;;;14.13;3.03;;;;;10.20;100801.00;;;;10561069;27;20285;-82
2024/04/19 16:15:09;;;;;;;13.90;2.70;;;;;10.30;100806.00;;;;10606603;27;20256;-80
2024/04/19 16:20:11;;;;;;;14.07;3.53;;;;;10.10;100811.00;;;;10544170;27;20955;-81
2024/04/19 16:25:16;;;;;;;18.07;3.70;;;;;10.00;100815.00;;;;10574803;27;21065;-79
2024/04/19 16:30:18;;;;;;;14.30;3.63;;;;;10.20;100826.00;;;;10561343;27;20593;-78
2024/04/19 16:35:20;;;;;;;10.63;2.67;;;;;10.60;100825.00;;;;10571791;27;20289;-78
2024/04/19 16:40:21;;;;;;;11.70;2.80;;;;;10.50;100797.00;;;;10647481;27;20263;-79
2024/04/19 16:45:23;;;;;;;14.60;2.60;;;;;10.20;100838.00;;;;10630222;27;20766;-79
2024/04/19 16:50:25;;;;;;;11.40;2.93;;;;;9.70;100846.00;;;;10581687;27;20290;-78
2024/04/19 16:55:27;;;;;;;10.63;2.67;;;;;9.20;100861.00;;;;10614112;27;20761;-78
2024/04/19 17:00:28;;;;;;;10.27;3.13;;;;;8.40;100888.00;;;;10629023;27;20312;-78
2024/04/19 17:05:30;;;;;;;10.97;3.17;;;;;8.60;100873.00;;;;10587426;27;20295;-80
2024/04/19 17:10:31;;;;;;;11.17;2.53;;;;;8.60;100886.00;;;;10585864;27;20298;-78
2024/04/19 17:15:34;;;;;;;12.67;2.70;;;;;8.60;100886.00;;;;10598269;27;20367;-78
2024/04/19 17:20:40;;;;;;;12.13;3.23;;;;;8.70;100899.00;;;;10600695;27;20314;-77
2024/04/19 17:25:46;;;;;;;14.57;2.73;;;;;8.60;100877.00;;;;10587681;27;20654;-82
2024/04/19 17:30:49;;;;;;;18.13;4.17;;;;;8.10;100915.00;;;;10612780;27;20269;-79
2024/04/19 17:35:51;;;;;;;15.13;2.57;;;;;7.60;100923.00;;;;10584755;27;20304;-79
2024/04/19 17:40:52;;;;;;;12.20;2.47;;;;;7.80;100875.00;;;;10613586;27;20298;-79
2024/04/19 17:45:53;;;;;;;13.87;3.27;;;;;7.70;100912.00;;;;10597645;27;20589;-80
2024/04/19 17:50:55;;;;;;;15.00;2.80;;;;;7.90;100916.00;;;;10592261;27;20810;-80
2024/04/19 17:55:57;;;;;;;11.70;2.93;;;;;7.90;100914.00;;;;10564894;27;20269;-81
2024/04/19 18:00:58;;;;;;;17.80;3.23;;;;;7.80;100930.00;;;;10597346;27;20287;-81
2024/04/19 18:06:00;;;;;;;13.73;2.90;;;;;7.80;100945.00;;;;10597609;27;20620;-81
2024/04/19 18:11:02;;;;;;;17.17;3.40;;;;;7.40;100958.00;;;;10571565;27;20272;-81
2024/04/19 18:16:07;;;;;;;10.13;3.00;;;;;6.90;100958.00;;;;10601031;27;20268;-79
2024/04/19 18:21:08;;;;;;;16.23;3.33;;;;;6.80;100959.00;;;;10582636;27;20268;-80
2024/04/19 18:26:10;;;;;;;20.07;3.87;;;;;6.90;100951.00;;;;10584540;27;20268;-81
2024/04/19 18:31:11;;;;;;;25.37;3.97;;;;;6.90;100956.00;;;;10594204;27;20263;-81
2024/04/19 18:36:12;;;;;;;13.10;3.30;;;;;7.00;100969.00;;;;10637886;27;20767;-85
2024/04/19 18:41:14;;;;;;;20.00;3.93;;;;;7.10;100972.00;;;;10606159;27;20268;-86
2024/04/19 18:46:15;;;;;;;22.60;4.50;;;;;7.10;100975.00;;;;10617199;27;20384;-86
2024/04/19 18:51:16;;;;;;;25.57;3.87;;;;;7.10;100989.00;;;;10619115;27;20280;-86
2024/04/19 18:56:18;;;;;;;23.53;4.43;;;;;7.10;100994.00;;;;10583920;27;20728;-85
2024/04/19 19:01:20;;;;;;;24.87;5.17;;;;;6.90;100987.00;;;;10572030;27;20260;-87
2024/04/19 19:06:26;;;;;;;20.30;4.03;;;;;6.80;100985.00;;;;10594999;27;20312;-85
2024/04/19 19:11:28;;;;;;;18.57;4.33;;;;;6.80;101014.00;;;;10589062;27;20344;-84
2024/04/19 19:16:32;;;;;;;15.13;3.07;;;;;6.80;100999.00;;;;10610926;27;20724;-86
2024/04/19 19:21:34;;;;;;;12.80;3.50;;;;;6.60;101016.00;;;;10598593;27;20290;-84
2024/04/19 19:26:36;;;;;;;14.63;2.90;;;;;6.60;101034.00;;;;10639426;27;20312;-88
2024/04/19 19:31:37;;;;;;;17.77;3.20;;;;;6.60;101045.00;;;;10588007;27;20268;-86
2024/04/19 19:36:42;;;;;;;15.50;2.97;;;;;6.50;101049.00;;;;10545979;27;20408;-86
2024/04/19 19:41:43;;;;;;;18.27;3.00;;;;;6.50;101056.00;;;;10602701;27;20379;-80
2024/04/19 19:46:44;;;;;;;15.30;3.77;;;;;6.40;101052.00;;;;10583978;27;20401;-80
2024/04/19 19:51:46;;;;;;;18.10;3.20;;;;;6.40;101069.00;;;;10563848;27;20283;-80
2024/04/19 19:56:49;;;;;;;15.53;3.60;;;;;6.40;101078.00;;;;10616843;27;20658;-79
2024/04/19 20:07:11;;;;;;;14.57;3.37;;;;;6.50;101085.00;;;;10592616;27;21163;-79
2024/04/19 20:12:13;;;;;;;18.23;3.93;;;;;6.50;101080.00;;;;10586957;27;20276;-80
2024/04/19 20:17:14;;;;;;;19.13;3.97;;;;;6.50;101085.00;;;;10630658;27;20286;-80
2024/04/19 20:22:15;;;;;;;16.93;4.00;;;;;6.50;101090.00;;;;10563784;27;20314;-79
2024/04/19 20:27:17;;;;;;;16.63;3.77;;;;;6.50;101106.00;;;;10593837;27;20264;-80
2024/04/19 20:32:18;;;;;;;19.73;4.10;;;;;6.50;101115.00;;;;10542380;27;20704;-81
2024/04/19 20:37:20;;;;;;;25.10;4.07;;;;;6.50;101120.00;;;;10591025;27;20291;-80
2024/04/19 20:42:22;;;;;;;15.50;4.23;;;;;6.40;101116.00;;;;10636081;27;22492;-80
2024/04/19 20:47:26;;;;;;;16.37;3.40;;;;;6.50;101117.00;;;;10563715;27;20306;-83
2024/04/19 20:52:28;;;;;;;22.17;5.73;;;;;6.40;101123.00;;;;10598304;27;20320;-82
2024/04/19 20:57:29;;;;;;;19.13;3.40;;;;;6.30;101121.00;;;;10581614;27;20319;-82
2024/04/19 21:02:30;;;;;;;17.90;4.30;;;;;6.20;101128.00;;;;10585409;27;20276;-82
2024/04/19 21:07:33;;;;;;;21.97;3.53;;;;;6.00;101128.00;;;;10565985;27;20258;-81
2024/04/19 21:12:34;;;;;;;14.93;3.33;;;;;5.90;101136.00;;;;10590218;27;20249;-82
2024/04/19 21:17:36;;;;;;;13.80;3.30;;;;;5.90;101148.00;;;;10616145;27;20265;-81
2024/04/19 21:22:37;;;;;;;18.43;3.40;;;;;5.70;101147.00;;;;10575656;27;21015;-81
2024/04/19 21:27:39;;;;;;;15.53;3.37;;;;;5.70;101153.00;;;;10598364;27;20307;-82
2024/04/19 21:32:40;;;;;;;22.93;4.30;;;;;5.80;101148.00;;;;10606280;27;20302;-82
2024/04/19 21:37:42;;;;;;;21.57;4.10;;;;;5.80;101151.00;;;;10634348;27;20283;-81
2024/04/19 21:42:45;;;;;;;17.37;3.33;;;;;5.80;101151.00;;;;10594939;27;20307;-82
2024/04/19 21:47:47;;;;;;;13.70;3.57;;;;;5.90;101162.00;;;;10597119;27;20332;-82
2024/04/19 21:52:48;;;;;;;14.23;3.13;;;;;6.00;101169.00;;;;10586462;27;20260;-82
2024/04/19 21:57:51;;;;;;;19.33;3.83;;;;;6.10;101172.00;;;;10585316;27;20302;-82
2024/04/19 22:02:53;;;;;;;20.90;4.33;;;;;6.10;101177.00;;;;10623024;27;20265;-84
2024/04/19 22:07:54;;;;;;;14.00;3.03;;;;;5.90;101172.00;;;;10636772;22;20307;-84
2024/04/19 22:12:55;;;;;;;14.53;2.83;;;;;5.80;101182.00;;;;10534251;27;20283;-85
2024/04/19 22:17:57;;;;;;;15.77;3.50;;;;;5.60;101178.00;;;;10543347;27;20381;-86
2024/04/19 22:22:59;;;;;;;19.90;3.90;;;;;5.50;101181.00;;;;10519724;27;20304;-84
2024/04/19 22:28:01;;;;;;;16.70;2.97;;;;;5.40;101186.00;;;;10500631;27;20296;-84
2024/04/19 22:33:03;;;;;;;19.53;3.20;;;;;5.30;101195.00;;;;10516971;27;20281;-85
2024/04/19 22:38:05;;;;;;;12.10;3.33;;;;;5.30;101201.00;;;;10486807;27;20284;-86
2024/04/19 22:43:08;;;;;;;15.80;3.07;;;;;5.30;101197.00;;;;10547545;27;20261;-84
2024/04/19 22:48:10;;;;;;;17.73;4.27;;;;;5.20;101206.00;;;;10542929;27;20265;-86
2024/04/19 22:53:11;;;;;;;11.47;3.60;;;;;5.10;101207.00;;;;10596569;22;20284;-85
2024/04/19 22:58:12;;;;;;;17.67;3.20;;;;;5.10;101208.00;;;;10551280;27;20275;-85
2024/04/19 23:03:14;;;;;;;18.27;3.23;;;;;5.30;101215.00;;;;10660012;22;20333;-85
2024/04/19 23:08:23;;;;;;;15.13;3.20;;;;;5.40;101219.00;;;;10811046;22;20288;31
2024/04/19 23:13:25;;;;;;;18.17;3.90;;;;;5.40;101226.00;;;;10526876;27;20281;-85
2024/04/19 23:18:26;;;;;;;12.30;2.50;;;;;5.40;101235.00;;;;10441837;28;20299;-87
2024/04/19 23:23:31;;;;;;;11.77;3.03;;;;;5.40;101236.00;;;;10500878;28;20288;-85
2024/04/19 23:28:33;;;;;;;12.07;2.87;;;;;5.50;101243.00;;;;10488730;28;20311;-86
2024/04/19 23:33:40;;;;;;;17.13;3.10;;;;;5.40;101231.00;;;;10398211;22;20255;-91
2024/04/19 23:39:02;;;;;;;18.33;3.30;;;;;5.40;101238.00;;;;10377183;27;20685;-92
2024/04/19 23:44:14;;;;;;;15.13;3.17;;;;;5.40;101239.00;;;;10343511;27;20259;-92
2024/04/19 23:49:18;;;;;;;12.23;3.00;;;;;5.40;101248.00;;;;10379811;27;20402;-90
2024/04/19 23:54:27;;;;;;;12.00;3.27;;;;;5.40;101248.00;;;;10372683;27;20302;-91
2024/04/19 23:59:39;;;;;;;15.90;3.50;;;;;5.50;101243.00;;;;10327562;27;20275;-90
